Tiempo atmosférico en la estación meteorológica de Reinosa, Cantabria (875 m.)



Fecha
DESCASC
Temp. máxima en grados centígrados (hora)
DESCASC
Temp. mínima en grados centígrados (hora)
DESCASC
Temp. media en grados centígrados
DESCASC
Racha de viento máxima en m/sg (hora)
DESCASC
Velocidad máxima media en intervalos de 10 minutos(hora)
DESCASC
Precipitaciones diarias en mm
DESCASC
Precipitaciones de 00:00 a 06:00 en mm
DESCASC
Precipitaciones de 06:00 a 12:00 en mm
DESCASC
Precipitaciones de 12:00 a 18:00 en mm
DESCASC
Precipitaciones de 18:00 a 24:00 en mm
DESCASC
05-04-2020 16.4 (17:40) 9.1 (07:20) 12.8 18.06 (00:50) 10.28 (20:10) 1.2 0 0 0 1.2
04-04-2020 17.4 (16:10) -3.3 (05:50) 7 17.78 (23:59) 7.22 (21:50) 0 0 0 0 0
03-04-2020 13.9 (18:20) 1.4 (06:30) 7.6 6.94 (00:10) 3.33 (00:10) 0 0 0 0 0
02-04-2020 9 (14:10) 3.7 (00:00) 6.4 8.89 (13:10) 5.28 (16:00) 2 1.3 0.6 0.1 0
01-04-2020 12 (16:20) 4.5 (00:00) 8.3 7.5 (16:40) 5 (16:40) 5.8 0.3 0.2 0.1 5.2
31-03-2020 5.4 (19:20) -3.2 (-00:0) 1.1 6.67 (20:00) 3.06 (20:00) 0.2 0 0 0.1 0.1
30-03-2020 1.6 (00:10) -2.1 (-00:0) -0.2 12.22 (09:30) 6.11 (09:30) 6 1.3 2.5 2.1 0.1
29-03-2020 10.8 (15:20) -3.4 (-00:0) 3.7 9.72 (15:40) 6.39 (16:20) 0.2 0 0 0 0.2
28-03-2020 13.6 (14:10) -5 (-00:0) 4.3 7.5 (16:40) 4.72 (13:20) 0 0 0 0 0
27-03-2020 11.2 (15:00) -3.9 (-00:0) 3.6 7.5 (15:10) 3.61 (15:30) 0 0 0 0 0
26-03-2020 7.2 (15:50) -0.3 (00:00) 3.4 11.67 (05:00) 8.89 (05:00) 0 0 0 0 0
25-03-2020 13.6 (13:40) -0.7 (-00:0) 6.5 11.39 (21:50) 7.78 (21:50) 0 0 0 0 0
24-03-2020 15.2 (15:30) 3 (00:00) 9.1 6.67 (14:20) 4.72 (15:20) 0 0 0 0 0
23-03-2020 13 (16:10) 1.1 (00:00) 7.1 7.78 (14:50) 4.17 (15:00) 0 0 0 0 0
22-03-2020 13.9 (14:10) 2.3 (05:30) 8.1 8.89 (17:10) 5 (14:40) 0 0 0 0 0
21-03-2020 15.3 (16:50) 4.9 (00:00) 10.1 7.5 (12:10) 5.28 (09:50) 0 0 0 0 0
20-03-2020 14.2 (16:00) 5.5 (00:00) 9.8 8.61 (13:50) 5.56 (13:40) 0 0 0 0 0
19-03-2020 18 (14:00) 2.5 (00:00) 10.3 8.06 (13:10) 5.28 (15:20) 0 0 0 0 0
18-03-2020 18 (15:30) 1 (00:00) 9.5 8.33 (14:10) 5.56 (00:10) 0 0 0 0 0
17-03-2020 9.8 (12:20) 3.8 (00:00) 6.8 10.83 (03:00) 5.83 (02:00) 0 0 0 0 0
16-03-2020 4.4 (13:30) 0.9 (00:00) 2.7 16.11 (11:10) 10.28 (11:10) 2.9 0.1 1.8 0.9 0.1
15-03-2020 16.9 (14:40) -0.7 (-00:0) 8.1 11.67 (20:30) 7.5 (09:10) 0 0 0 0 0
14-03-2020 13.7 (17:00) -3.8 (-00:0) 4.9 4.72 (14:40) 3.06 (18:00) 0 0 0 0 0
13-03-2020 8.7 (13:00) -1.7 (23:59) 3.5 6.67 (14:40) 4.17 (13:10) 0 0 0 0 0
12-03-2020 9.9 (12:50) 5 (00:00) 7.4 7.78 (19:10) 4.72 (17:40) 0.1 0.1 0 0 0
11-03-2020 20.8 (16:50) -0.7 (-00:0) 10 11.39 (15:10) 6.11 (15:00) 0 0 0 0 0
10-03-2020 18.4 (15:30) 0 (00:00) 9.2 5.56 (15:00) 4.17 (16:50) 0 0 0 0 0
09-03-2020 9.6 (16:10) 2.8 (00:00) 6.2 10.28 (11:40) 6.67 (12:40) 0 0 0 0 0
08-03-2020 14.1 (15:10) -3.2 (-00:0) 5.5 9.17 (23:40) 5.83 (23:59) 0 0 0 0 0

Gráficas

Temp. máximas Temp. mínimas Temp. medias Precipitaciones Rachas de viento máximas Velocidades máximas media en intervalos de 10 minutos

Datos horarios

Fecha y hora oficial Temperatura (ºC) Velocidad del viento (km/h) Dirección del viento Racha (km/h) Dirección de racha Precipitación (mm) Presión (hPa) Tendencia (hPa) Humedad (%)
2020-04-06 23:00:00 8.2 0 Calma 4 Sur 0.6 921.9 0.7 93
2020-04-06 22:00:00 8.2 2 Sur 6 Este 0.7 921.9 1.6 93
2020-04-06 21:00:00 8.2 6 Este 10 Este 1.9 921.4 1.1 94
2020-04-06 20:00:00 8.5 7 Nordeste 15 Nordeste 1.4 921.2 0.9 93
2020-04-06 19:00:00 9.4 8 Nordeste 14 Este 0 920.3 -0.5 91
2020-04-06 18:00:00 9.8 6 Nordeste 14 Este 0 920.3 -0.1 86
2020-04-06 17:00:00 9.5 12 Este 15 Este 0.3 920.3 0.3 87
2020-04-06 16:00:00 9.3 9 Este 16 Nordeste 0.5 920.8 1.1 89
2020-04-06 15:00:00 9 8 Nordeste 20 Nordeste 0.4 920.4 1.1 92
2020-04-06 14:00:00 9.3 8 Este 16 Este 0.6 920 1.8 92
2020-04-06 13:00:00 8.7 5 Este 14 Este 1.9 919.7 2.4 94
2020-04-06 12:00:00 8.5 6 Nordeste 15 Nordeste 2.4 919.3 2.3 94
2020-04-06 11:00:00 8.9 6 Nordeste 14 Este 1.8 918.2 1.6 94
2020-04-06 10:00:00 8.9 7 Nordeste 13 Nordeste 1.8 917.3 1.6 94
2020-04-06 09:00:00 9.2 3 Nordeste 11 Este 2 917 1.6 94
2020-04-06 08:00:00 9.1 6 Nordeste 10 Nordeste 3 916.6 1.3 94
2020-04-06 07:00:00 9.8 3 Nordeste 17 Sur 1.2 915.7 0.4 92
2020-04-06 06:00:00 10 6 Sur 21 Sur 0 915.4 0.4 91
2020-04-06 05:00:00 10.1 12 Sur 20 Sur 0 915.3 -0.4 88
2020-04-06 04:00:00 10.7 10 Sur 31 Sudeste 0 915.3 0.2 82
2020-04-06 03:00:00 11 15 Sudeste 24 Sudeste 0 915 0.2 81
2020-04-06 02:00:00 10.7 6 Sudoeste 35 Sudoeste 0 915.7 0.6 82
2020-04-06 01:00:00 11.6 20 Sudoeste 38 Sudoeste 0.1 915.1 0.6 72
2020-04-06 00:00:00 11.3 18 Sudoeste 43 Oeste 0 914.8 0.6 74
2020-04-05 23:00:00 11.2 21 Sudoeste 42 Sudoeste 0.1 915.1 1.7 77
2020-04-05 22:00:00 11.3 24 Sudoeste 50 Sudoeste 0.7 914.5 2.1 71
2020-04-05 21:00:00 11.8 23 Sudoeste 60 Sudoeste 0.3 914.2 1.8 66
2020-04-05 20:00:00 12.4 33 Sudoeste 58 Sudoeste 0.1 913.4 0.7 65
2020-04-05 19:00:00 14.6 25 Sudoeste 62 Sudoeste 0 912.4 -0.9 53
2020-04-05 18:00:00 15.3 26 Sur 59 Sudoeste 0 912.4 -1.3 54
2020-04-05 17:00:00 14.7 22 Sur 55 Sudoeste 0 912.7 -1.3 55
2020-04-05 16:00:00 14.6 11 Sudoeste 32 Sur 0 913.3 -1.3 56
2020-04-05 15:00:00 13 18 Sur 47 Sudeste 0 913.7 -1 61
2020-04-05 14:00:00 12.5 11 Sur 29 Sur 0 914 -0.3 61
2020-04-05 13:00:00 12 19 Sudoeste 44 Sudoeste 0 914.6 0.9 64
2020-04-05 12:00:00 11.8 17 Sudoeste 45 Sudoeste 0 914.7 1 64
2020-04-05 11:00:00 11.8 22 Sudoeste 38 Sudoeste 0 914.3 1 62
2020-04-05 10:00:00 11.4 17 Sudoeste 36 Sudoeste 0 913.7 0.6 63
2020-04-05 09:00:00 9.9 21 Sudoeste 44 Sudoeste 0 913.7 0.7 66
2020-04-05 08:00:00 9.6 16 Sudoeste 33 Sudoeste 0 913.3 0.8 68
2020-04-05 07:00:00 9.4 13 Sudoeste 34 Sur 0 913.1 0.2 65
2020-04-05 06:00:00 9.6 11 Sudoeste 43 Sur 0 913 0.6 63
2020-04-05 05:00:00 9.9 13 Sudoeste 51 Sur 0 912.5 -0.8 61
2020-04-05 04:00:00 10.3 16 Sur 64 Sur 0 912.9 -0.1 56
2020-04-05 03:00:00 10.6 28 Sur 55 Sudeste 0 912.4 -0.7 51
2020-04-05 02:00:00 11.4 27 Sur 49 Sudoeste 0 913.3 0 44
2020-04-05 01:00:00 12.2 20 Sudoeste 65 Sur 0 913 0.1 41
2020-04-05 00:00:00 12.8 25 Sur 64 Sur 0 913.1 0.8 39
2020-04-04 23:00:00 13.4 26 Sur 60 Sur 0 913.3 1.2 38
2020-04-04 22:00:00 13.8 26 Sur 44 Sur 0 912.9 1 37
2020-04-04 21:00:00 14.4 15 Sur 34 Sur 0 912.3 0.4 33
2020-04-04 20:00:00 14.6 12 Sudoeste 42 Sur 0 912.1 -0.2 33
2020-04-04 19:00:00 15.6 17 Sudoeste 42 Sur 0 911.9 -0.6 32
2020-04-04 18:00:00 16.7 14 Sur 37 Sur 0 911.9 -1.4 31
2020-04-04 17:00:00 16.7 18 Sur 43 Sur 0 912.3 -1.7 26
2020-04-04 16:00:00 16.9 18 Sur 45 Sur 0 912.5 -2.1 28
2020-04-04 15:00:00 16.1 24 Sur 42 Sur 0 913.3 -1.9 31
2020-04-04 14:00:00 15.6 11 Sur 39 Sur 0 914 -0.8 34
2020-04-04 13:00:00 14.1 14 Sur 48 Sur 0 914.6 -0.4 38
2020-04-04 12:00:00 13 19 Sur 37 Sudeste 0 915.2 -0.1 41
2020-04-04 11:00:00 11.5 11 Sur 19 Sur 0 914.8 -0.2 42
2020-04-04 10:00:00 9.4 7 Sudeste 15 Sudeste 0 915 0.1 59
2020-04-04 09:00:00 0.7 2 Oeste 10 Sur 0 915.3 0.3 84
2020-04-04 08:00:00 -2.1 4 Oeste 12 Oeste 0 915 0 88
2020-04-04 07:00:00 -2.3 5 Noroeste 10 Noroeste 0 914.9 -0.3 91
2020-04-04 06:00:00 -2.8 4 Noroeste 12 Oeste 0 915 -0.7 92
2020-04-04 05:00:00 -2.5 5 Noroeste 11 Noroeste 0 915 -0.7 93
2020-04-04 04:00:00 -2 4 Oeste 9 Oeste 0 915.2 -0.8 92
2020-04-04 03:00:00 -0.1 0 Calma 6 Oeste 0 915.7 -0.3 91
2020-04-04 02:00:00 0.2 2 Oeste 6 Oeste 0 915.7 -0.2 91
2020-04-04 01:00:00 1.1 0 Calma 7 Oeste 0 916 0.4 89
2020-04-04 00:00:00 2.5 0 Calma 7 Oeste 0 916 1 86
2020-04-03 23:00:00 3.3 2 Noroeste 5 Noroeste 0 915.9 1 83
2020-04-03 22:00:00 5.4 0 Calma 5 Noroeste 0 915.6 0.6 77
2020-04-03 21:00:00 8.5 0 Calma 10 Este 0 915 0 65
2020-04-03 20:00:00 11.4 6 Nordeste 13 Este 0 914.9 -0.4 56
2020-04-03 19:00:00 13.3 8 Nordeste 14 Este 0 915 -0.7 43
2020-04-03 18:00:00 13.7 8 Este 14 Este 0 915 -1.2 41
2020-04-03 17:00:00 13.2 8 Nordeste 16 Nordeste 0 915.3 -1.6 43
2020-04-03 16:00:00 12.9 5 Nordeste 19 Nordeste 0 915.7 -1.8 45
2020-04-03 15:00:00 11.3 0 Calma 12 Este 0 916.2 -1.7 47
2020-04-03 14:00:00 9.8 6 Este 15 Este 0 916.9 -1.1 55
2020-04-03 13:00:00 8.4 6 Nordeste 14 Nordeste 0 917.5 -0.2 59
2020-04-03 12:00:00 7.2 0 Calma 10 Sudeste 0 917.9 0.6 61
2020-04-03 11:00:00 4.7 0 Calma 8 Norte 0 918 0.8 70
2020-04-03 10:00:00 3.5 0 Calma 5 Noroeste 0 917.7 0.8 78
2020-04-03 09:00:00 2.2 3 Oeste 7 Sudoeste 0 917.3 0.4 78
2020-04-03 08:00:00 1.6 5 Noroeste 6 Oeste 0 917.2 0.2 85
2020-04-03 07:00:00 1.7 3 Oeste 6 Noroeste 0 916.9 -0.4 84
2020-04-03 06:00:00 1.7 3 Oeste 9 Noroeste 0 916.9 -0.8 83
2020-04-03 05:00:00 1.8 4 Noroeste 12 Nordeste 0 917 -0.7 84
2020-04-03 04:00:00 3 3 Nordeste 16 Nordeste 0 917.3 -0.4 87
2020-04-03 03:00:00 3.8 6 Nordeste 13 Norte 0 917.7 0 78
2020-04-03 02:00:00 4.1 4 Norte 16 Norte 0 917.7 -0.2 78
2020-04-03 01:00:00 3.7 5 Norte 25 Nordeste 0 917.7 0.2 79
2020-04-03 00:00:00 3.9 13 Norte 24 Norte 0 917.7 1 82
2020-04-02 23:00:00 4 10 Norte 21 Norte 0 917.9 1.5 85
2020-04-02 22:00:00 4 14 Norte 27 Norte 0 917.5 1.7 86
2020-04-02 21:00:00 4.7 12 Norte 26 Norte 0 916.7 1.1 85
2020-04-02 20:00:00 5.9 15 Norte 27 Norte 0 916.4 1.1 82
2020-04-02 19:00:00 6.3 13 Norte 26 Noroeste 0 915.8 0.4 77
2020-04-02 18:00:00 6.9 16 Norte 28 Norte 0 915.6 0.2 74
2020-04-02 17:00:00 7 14 Norte 26 Noroeste 0.1 915.3 0.2 76
2020-04-02 16:00:00 7.6 19 Noroeste 30 Noroeste 0 915.4 0.3 78
2020-04-02 15:00:00 8.3 10 Norte 30 Norte 0 915.4 0.9 73
2020-04-02 14:00:00 8.3 8 Norte 32 Norte 0 915.1 0.9 73
2020-04-02 13:00:00 7.6 13 Norte 30 Norte 0 915.1 1.4 80
2020-04-02 12:00:00 7.8 16 Norte 28 Norte 0.1 914.5 1.2 83
2020-04-02 11:00:00 7.9 10 Norte 21 Nordeste 0 914.2 1.5 80
2020-04-02 10:00:00 7.2 13 Nordeste 27 Nordeste 0 913.7 1.2 84
2020-04-02 09:00:00 6.4 11 Norte 24 Nordeste 0.2 913.3 0.9 89
2020-04-02 08:00:00 6.4 7 Norte 25 Norte 0.3 912.7 0.4 88
2020-04-02 07:00:00 6.4 4 Norte 13 Norte 0 912.5 -0.1 89
2020-04-02 06:00:00 6.4 5 Norte 14 Norte 0 912.4 -0.3 90
2020-04-02 05:00:00 6 8 Norte 14 Norte 0 912.3 -0.5 90
2020-04-02 04:00:00 6.3 5 Norte 11 Norte 0 912.6 -0.2 94
2020-04-02 03:00:00 6.5 0 Calma 5 Noroeste 0.1 912.7 -0.2 94
2020-04-02 02:00:00 6.7 0 Calma 7 Noroeste 0.4 912.8 -0.1 94
2020-04-02 01:00:00 6.4 2 Sudeste 4 Este 0.8 912.8 0.2 94
2020-04-02 00:00:00 6.4 0 Calma 5 Oeste 0.5 912.9 0.9 94
2020-04-01 23:00:00 6.4 0 Calma 4 Sudeste 1.2 912.9 1.2 94
2020-04-01 22:00:00 7.1 2 Noroeste 6 Noroeste 1.8 912.6 1.2 94
2020-04-01 21:00:00 7.6 0 Calma 5 Sudeste 1 912 1.2 91
2020-04-01 20:00:00 8 0 Calma 13 Este 0.6 911.7 1 90
2020-04-01 19:00:00 8.4 5 Este 17 Nordeste 0.1 911.4 0.8 86
2020-04-01 18:00:00 9.1 5 Nordeste 23 Nordeste 0 910.8 -0.3 75
2020-04-01 17:00:00 10.2 16 Este 27 Este 0 910.7 -0.7 71
2020-04-01 16:00:00 11.5 8 Sudeste 21 Sudeste 0 910.6 -1.1 55
2020-04-01 15:00:00 10.5 11 Sudeste 20 Sudeste 0 911.1 -1 60
2020-04-01 14:00:00 9.7 12 Sudeste 20 Sudeste 0.1 911.4 -0.8 68
2020-04-01 13:00:00 8.5 12 Sur 20 Sur 0 911.7 -0.2 76
2020-04-01 12:00:00 8.2 10 Sur 16 Sur 0 912.1 0.7 82
2020-04-01 11:00:00 6 7 Sur 10 Sur 0.2 912.2 1.6 88
2020-04-01 10:00:00 5.5 5 Sur 10 Sur 0 911.9 1.3 90
2020-04-01 09:00:00 5.6 9 Sur 15 Sur 0 911.4 1 90
2020-04-01 08:00:00 5.4 11 Sur 17 Sudeste 0 910.6 0.1 90
2020-04-01 07:00:00 5.3 7 Sur 15 Sudeste 0 910.6 0 91
2020-04-01 06:00:00 5.2 9 Sudeste 21 Sur 0 910.4 -0.5 92
2020-04-01 05:00:00 5 4 Sudoeste 8 Sudoeste 0.2 910.5 -0.5 93
2020-04-01 04:00:00 4.9 2 Oeste 9 Oeste 0.1 910.6 -0.6 90
2020-04-01 03:00:00 4.6 3 Oeste 5 Noroeste 0 910.9 -0.5 90
2020-04-01 02:00:00 4.7 0 Calma 9 Oeste 0 911 -0.1 89
2020-04-01 01:00:00 4.7 5 Oeste 6 Oeste 0 911.2 0.4 89
2020-04-01 00:00:00 4.8 0 Calma 5 Sur 0 911.4 1 87
2020-03-31 23:00:00 4.7 4 Noroeste 12 Sur 0 911.1 1 86
2020-03-31 22:00:00 5 8 Sudeste 16 Sudeste 0 910.8 1.1 83
2020-03-31 21:00:00 5 4 Sur 21 Sudeste 0 910.4 0.6 78
2020-03-31 20:00:00 5.1 11 Sudeste 24 Sudeste 0 910.1 0.3 78
2020-03-31 19:00:00 5.1 5 Sudeste 17 Sudeste 0.1 909.7 -0.4 89
2020-03-31 18:00:00 3.9 6 Oeste 13 Noroeste 0 909.8 -0.6 87
2020-03-31 17:00:00 3.6 6 Oeste 13 Oeste 0.1 909.8 -1 85
2020-03-31 16:00:00 3.2 2 Sur 12 Oeste 0 910.1 -0.7 83
2020-03-31 15:00:00 2.3 5 Oeste 13 Oeste 0 910.4 -0.4 79
2020-03-31 14:00:00 2.1 2 Norte 13 Este 0 910.8 -0.1 78
2020-03-31 13:00:00 1.2 3 Norte 8 Sudoeste 0 910.8 -0.2 78
2020-03-31 12:00:00 1.1 3 Noroeste 10 Noroeste 0 910.8 -0.2 77
2020-03-31 11:00:00 0.8 2 Este 13 Noroeste 0 910.9 -0.2 75
2020-03-31 10:00:00 -0.2 3 Norte 10 Nordeste 0 911 0.4 78
2020-03-31 09:00:00 -0.7 5 Noroeste 11 Noroeste 0 911 0.3 78
2020-03-31 08:00:00 -1.6 4 Noroeste 10 Noroeste 0 911.1 0.1 86
2020-03-31 07:00:00 -1.9 3 Noroeste 6 Noroeste 0 910.6 -1.2 88
2020-03-31 06:00:00 -2.1 5 Noroeste 11 Noroeste 0 910.7 -1.7 89
2020-03-31 05:00:00 -2.7 5 Norte 8 Norte 0 911 -2.2 89
2020-03-31 04:00:00 -1.5 3 Norte 9 Noroeste 0 911.8 -2 89
2020-03-31 03:00:00 -1.4 3 Norte 8 Norte 0 912.4 -1.7 90
2020-03-31 02:00:00 -1.7 4 Norte 14 Nordeste 0 913.2 -1.1 90
2020-03-31 01:00:00 -1.6 5 Nordeste 15 Nordeste 0 913.8 -0.9 90
2020-03-31 00:00:00 -1.5 5 Nordeste 24 Norte 0 914.1 -0.6 88
2020-03-30 23:00:00 -0.8 6 Norte 25 Noroeste 0 914.3 -0.3 87
2020-03-30 22:00:00 -0.9 7 Norte 26 Norte 0 914.7 -0.2 86
2020-03-30 21:00:00 -0.8 17 Norte 28 Norte 0 914.7 -0.6 83
2020-03-30 20:00:00 -0.8 18 Noroeste 24 Norte 0 914.6 -0.9 84
2020-03-30 19:00:00 -0.3 13 Norte 26 Norte 0.1 914.9 -1.2 79
2020-03-30 18:00:00 0 9 Norte 22 Norte 0.2 915.3 -1.1 82
2020-03-30 17:00:00 0.1 9 Norte 27 Norte 0.3 915.5 -1.6 84
2020-03-30 16:00:00 0.4 8 Nordeste 25 Noroeste 0.3 916.1 -1.3 78
2020-03-30 15:00:00 0.6 15 Norte 32 Norte 0.3 916.4 -1.5 77
2020-03-30 14:00:00 0.2 17 Norte 31 Norte 0.6 917.1 -0.7 82
2020-03-30 13:00:00 0 12 Nordeste 28 Nordeste 0.4 917.4 -1.1 78
2020-03-30 12:00:00 -0.9 17 Nordeste 38 Nordeste 0.4 917.9 -0.3 86
2020-03-30 11:00:00 -0.4 10 Norte 33 Nordeste 0 917.8 0 78
2020-03-30 10:00:00 -1.4 16 Norte 44 Nordeste 0.9 918.5 0.5 82
2020-03-30 09:00:00 -1.3 9 Nordeste 39 Nordeste 0.1 918.2 -0.2 87
2020-03-30 08:00:00 -0.8 15 Nordeste 33 Nordeste 0.1 917.8 -1.4 90
2020-03-30 07:00:00 -0.8 15 Norte 34 Norte 1 918 -1.8 92
2020-03-30 06:00:00 -0.5 6 Nordeste 21 Nordeste 0.1 918.4 -1.9 91
2020-03-30 05:00:00 -0.1 10 Norte 28 Norte 0.1 919.2 -1 88
2020-03-30 04:00:00 0 15 Norte 37 Nordeste 0.4 919.8 -0.9 89
2020-03-30 03:00:00 0.2 16 Norte 39 Norte 0.4 920.3 -0.6 89
2020-03-30 02:00:00 0.8 11 Norte 28 Norte 0.2 920.2 -0.6 93
2020-03-30 01:00:00 1.1 13 Nordeste 32 Norte 0.1 920.7 0.2 92
2020-03-30 00:00:00 1.5 11 Nordeste 33 Nordeste 0.2 920.9 0.8 93
2020-03-29 23:00:00 2.3 8 Norte 27 Nordeste 0 920.8 1.3 92
2020-03-29 22:00:00 3 10 Nordeste 32 Nordeste 0 920.5 0.9 91
2020-03-29 21:00:00 3.7 11 Nordeste 33 Nordeste 0 920.1 0.8 92
2020-03-29 20:00:00 4.3 15 Nordeste 28 Nordeste 0 919.5 0.5 91
2020-03-29 19:00:00 5 21 Norte 34 Norte 0 919.6 0.3 89
2020-03-29 18:00:00 6.8 13 Nordeste 33 Nordeste 0 919.3 -0.1 74
2020-03-29 17:00:00 8.8 16 Nordeste 35 Noroeste 0 919 -0.4 59
2020-03-29 16:00:00 9.6 19 Norte 35 Norte 0 919.3 -0.6 46
2020-03-29 15:00:00 9.9 13 Norte 29 Norte 0 919.4 -0.3 51
2020-03-29 14:00:00 10.3 17 Nordeste 31 Nordeste 0 919.4 -0.6 51
2020-03-29 13:00:00 9.7 18 Nordeste 30 Nordeste 0 919.9 0 55
2020-03-29 12:00:00 8.8 12 Nordeste 25 Este 0 919.7 -0.3 62
2020-03-29 11:00:00 7.5 8 Este 15 Nordeste 0 920 0.1 68
2020-03-29 10:00:00 3.8 0 Calma 4 Oeste 0 919.9 0.4 82
2020-03-29 09:00:00 -1.6 0 Calma 5 Oeste 0 920 0.7 93
2020-03-29 08:00:00 -2.7 3 Oeste 8 Sudoeste 0 919.9 0.4 93
2020-03-29 07:00:00 -2.1 0 Calma 7 Oeste 0 919.5 -0.4 94
2020-03-29 06:00:00 -2.3 3 Sudoeste 6 Oeste 0 919.3 -1 95
2020-03-29 05:00:00 -1.7 4 Oeste 7 Oeste 0 919.5 -0.7 95
2020-03-29 03:00:00 -1.5 4 Oeste 5 Oeste 0 920.3 0.3 95
2020-03-29 01:00:00 -0.8 3 Oeste 4 Oeste 0 920.2 0.3 95
2020-03-29 00:00:00 0.7 3 Noroeste 5 Sudoeste 0 920.1 0.6 95
2020-03-28 23:00:00 0.3 2 Noroeste 3 Norte 0 920 1.5 94
2020-03-28 22:00:00 2.2 2 Sur 4 Sur 0 919.9 1.9 92
2020-03-28 21:00:00 3 0 Calma 4 Sudoeste 0 919.5 2.3 87
2020-03-28 20:00:00 6.5 2 Sudeste 16 Este 0 918.5 1.7 78
2020-03-28 19:00:00 8.6 9 Este 24 Este 0 918 1.1 73
2020-03-28 18:00:00 9.9 15 Este 25 Este 0 917.2 0 65
2020-03-28 17:00:00 11.5 15 Nordeste 27 Nordeste 0 916.8 -0.7 51
2020-03-28 16:00:00 13.1 13 Nordeste 26 Nordeste 0 916.9 -0.5 45
2020-03-28 15:00:00 13.5 13 Nordeste 26 Nordeste 0 917.2 -0.5 45
2020-03-28 14:00:00 13.1 13 Este 25 Este 0 917.5 -0.3 44
2020-03-28 13:00:00 12.3 15 Este 21 Este 0 917.4 -0.6 43
2020-03-28 12:00:00 11.9 5 Este 14 Este 0 917.7 -0.1 41
2020-03-28 11:00:00 10.2 4 Nordeste 9 Este 0 917.8 0.2 56
2020-03-28 10:00:00 6.4 0 Calma 4 Este 0 918 0.7 68
2020-03-28 09:00:00 2.2 2 Oeste 8 Sudoeste 0 917.8 1 82
2020-03-28 08:00:00 -3.9 4 Oeste 8 Oeste 0 917.6 1.2 93
2020-03-28 07:00:00 -4.1 5 Sudoeste 8 Oeste 0 917.3 1 93
2020-03-28 06:00:00 -4.2 3 Noroeste 5 Noroeste 0 916.8 0.5 93
2020-03-28 05:00:00 -3.3 4 Oeste 6 Oeste 0 916.4 0.2 92
2020-03-28 04:00:00 -2.1 6 Oeste 11 Sudoeste 0 916.3 0.2 92
2020-03-28 03:00:00 -2.4 3 Oeste 4 Oeste 0 916.3 0.6 93
2020-03-28 02:00:00 -1.8 0 Calma 5 Sudoeste 0 916.2 0.6 91
2020-03-28 01:00:00 -1.1 0 Calma 5 Oeste 0 916.1 0.4 90
2020-03-28 00:00:00 0.1 3 Sudoeste 7 Sudoeste 0 915.7 0.6 88
2020-03-27 23:00:00 1.1 6 Sudoeste 9 Sudoeste 0 915.6 1.6 86
2020-03-27 22:00:00 1.3 2 Sudoeste 7 Oeste 0 915.7 2.6 86
2020-03-27 21:00:00 1.7 3 Sur 7 Sur 0 915.1 2.6 84
2020-03-27 20:00:00 4.5 0 Calma 14 Este 0 914 1.9 76
2020-03-27 19:00:00 6.7 11 Este 16 Este 0 913.1 1 69
2020-03-27 18:00:00 9 7 Nordeste 21 Nordeste 0 912.5 0.2 55
2020-03-27 17:00:00 10.6 8 Nordeste 23 Nordeste 0 912.1 -0.8 47
2020-03-27 16:00:00 10.6 8 Nordeste 27 Este 0 912.1 -1 42
2020-03-27 15:00:00 11.2 12 Este 20 Este 0 912.3 -1.4 37
2020-03-27 14:00:00 9.9 10 Nordeste 23 Nordeste 0 912.9 -1.2 41
2020-03-27 13:00:00 8.7 9 Este 19 Este 0 913.1 -1.1 46
2020-03-27 12:00:00 7 4 Noroeste 15 Nordeste 0 913.7 -0.1 53
2020-03-27 11:00:00 6.1 5 Nordeste 19 Nordeste 0 914.1 0.6 54
2020-03-27 10:00:00 4.2 7 Este 13 Este 0 914.2 1.1 57
2020-03-27 09:00:00 1.5 2 Sur 7 Sur 0 913.8 0.9 70
2020-03-27 08:00:00 -1.9 4 Sudoeste 13 Oeste 0 913.5 0.9 78
2020-03-27 07:00:00 -3.4 9 Noroeste 13 Noroeste 0 913.1 0.6 83
2020-03-27 06:00:00 -2.9 8 Noroeste 13 Noroeste 0 912.9 0.2 86
2020-03-27 05:00:00 -2.4 3 Oeste 9 Norte 0 912.6 -0.2 84
2020-03-27 04:00:00 -0.5 5 Norte 13 Nordeste 0 912.5 -0.2 81
2020-03-27 03:00:00 0 6 Norte 8 Norte 0 912.7 -0.1 83
2020-03-27 02:00:00 0.6 3 Noroeste 6 Nordeste 0 912.8 -0.2 78
2020-03-27 01:00:00 -0.5 3 Oeste 12 Noroeste 0 912.7 -0.2 82
2020-03-27 00:00:00 -0.3 10 Noroeste 19 Norte 0 912.8 0.1 78
2020-03-26 23:00:00 1.6 5 Nordeste 15 Nordeste 0 913 0.6 78
2020-03-26 22:00:00 1.7 8 Nordeste 21 Norte 0 912.9 1.1 77
2020-03-26 21:00:00 2.3 10 Nordeste 20 Nordeste 0 912.7 1.3 78
2020-03-26 20:00:00 2.6 7 Nordeste 25 Norte 0 912.4 0.9 82
2020-03-26 19:00:00 3.4 8 Norte 34 Noroeste 0 911.8 0.4 78
2020-03-26 18:00:00 4.2 19 Noroeste 34 Noroeste 0 911.4 0 72
2020-03-26 17:00:00 4.9 22 Noroeste 37 Noroeste 0 911.5 -0.8 68
2020-03-26 16:00:00 5.9 17 Noroeste 37 Noroeste 0 911.4 -1.1 58
2020-03-26 15:00:00 5.4 18 Noroeste 36 Noroeste 0 911.4 -1.4 64
2020-03-26 14:00:00 4.9 19 Noroeste 37 Noroeste 0 912.3 -0.8 69
2020-03-26 13:00:00 6.4 22 Noroeste 35 Noroeste 0 912.5 -0.8 61
2020-03-26 12:00:00 4.8 17 Norte 36 Noroeste 0 912.8 -0.4 65
2020-03-26 11:00:00 4.5 15 Noroeste 33 Noroeste 0 913.1 0.1 73
2020-03-26 10:00:00 3.5 15 Noroeste 28 Noroeste 0 913.3 0.3 74
2020-03-26 09:00:00 2.8 9 Noroeste 23 Noroeste 0 913.2 0.6 72
2020-03-26 08:00:00 2.3 7 Oeste 22 Noroeste 0 913 0.4 72
2020-03-26 07:00:00 1.4 12 Noroeste 32 Noroeste 0 913 -0.1 78
2020-03-26 06:00:00 2 27 Noroeste 41 Norte 0 912.6 -0.8 75
2020-03-26 05:00:00 2.3 32 Norte 42 Norte 0 912.6 -1.2 75
2020-03-26 04:00:00 2.3 13 Norte 28 Norte 0 913.1 -1.1 76
2020-03-26 03:00:00 2.8 19 Norte 38 Norte 0 913.4 -1 74
2020-03-26 02:00:00 3.1 22 Norte 37 Norte 0 913.8 -0.5 70
2020-03-26 01:00:00 3.4 9 Norte 28 Norte 0 914.2 -0.1 76
2020-03-26 00:00:00 3.7 7 Norte 26 Este 0 914.4 0.6 78
2020-03-25 23:00:00 3.9 8 Nordeste 35 Norte 0 914.3 0.6 78
2020-03-25 22:00:00 5 25 Norte 41 Norte 0 914.3 0.7 78
2020-03-25 21:00:00 6 9 Noroeste 24 Noroeste 0 913.8 0.1 73
2020-03-25 20:00:00 6.2 8 Noroeste 26 Noroeste 0 913.7 -0.1 74
2020-03-25 19:00:00 8.9 5 Noroeste 32 Noroeste 0 913.6 -0.2 62
2020-03-25 18:00:00 10 23 Noroeste 41 Norte 0 913.7 -0.4 62
2020-03-25 17:00:00 11.3 23 Noroeste 35 Noroeste 0 913.8 -0.7 59
2020-03-25 16:00:00 12.7 20 Noroeste 32 Noroeste 0 913.8 -1.2 52
2020-03-25 15:00:00 12.6 15 Nordeste 32 Norte 0 914.1 -1.1 61
2020-03-25 14:00:00 13.2 13 Norte 30 Norte 0 914.5 -0.8 42
2020-03-25 13:00:00 12.6 15 Norte 29 Norte 0 915 -0.2 40
2020-03-25 12:00:00 12 17 Noroeste 26 Noroeste 0 915.2 -0.5 43
2020-03-25 11:00:00 11.5 11 Norte 21 Norte 0 915.3 -0.4 43
2020-03-25 10:00:00 10.5 2 Nordeste 11 Norte 0 915.2 -0.2 59
2020-03-25 09:00:00 4.3 2 Sur 7 Oeste 0 915.7 0.3 71
2020-03-25 08:00:00 0.8 2 Oeste 8 Oeste 0 915.7 0 71
2020-03-25 07:00:00 0.5 4 Sudoeste 12 Oeste 0 915.4 -0.4 70
2020-03-25 06:00:00 0.6 9 Oeste 12 Oeste 0 915.4 -0.8 75
2020-03-25 05:00:00 1 4 Oeste 9 Sudoeste 0 915.7 -0.9 86
2020-03-25 04:00:00 2.4 6 Sudoeste 11 Sudoeste 0 915.8 -0.7 85
2020-03-25 03:00:00 2.9 8 Oeste 10 Oeste 0 916.2 -0.6 89
2020-03-25 02:00:00 3.3 7 Sudoeste 10 Sudoeste 0 916.6 -0.2 89
2020-03-25 01:00:00 4.1 5 Oeste 6 Oeste 0 916.5 -0.2 90
2020-03-25 00:00:00 4.9 2 Oeste 8 Oeste 0 916.8 0.3 88
2020-03-24 23:00:00 5.5 3 Oeste 5 Oeste 0 916.8 0.7 88
2020-03-24 22:00:00 6 4 Noroeste 7 Noroeste 0 916.7 0.7 88
2020-03-24 21:00:00 9.6 5 Este 9 Sudeste 0 916.5 0.6 78
2020-03-24 20:00:00 10.5 0 Calma 9 Norte 0 916.1 0.3 68
2020-03-24 19:00:00 11.5 4 Nordeste 18 Nordeste 0 916 -0.1 67
2020-03-24 18:00:00 13.6 7 Nordeste 23 Este 0 915.9 -0.7 51
2020-03-24 17:00:00 14.7 15 Este 23 Este 0 915.8 -1.6 43
2020-03-24 16:00:00 14.7 15 Este 23 Este 0 916.1 -1.7 42
2020-03-24 15:00:00 14.6 15 Este 24 Nordeste 0 916.6 -1.3 44
2020-03-24 14:00:00 14.7 12 Este 23 Este 0 917.4 -0.9 48
2020-03-24 13:00:00 13.2 13 Este 22 Este 0 917.8 -0.8 49
2020-03-24 12:00:00 12.4 5 Norte 11 Norte 0 917.9 -1 57
2020-03-24 11:00:00 11.1 4 Noroeste 14 Noroeste 0 918.3 -0.4 62
2020-03-24 10:00:00 9.2 7 Noroeste 13 Oeste 0 918.6 0.7 73
2020-03-24 09:00:00 6.9 6 Oeste 8 Noroeste 0 918.9 0.9 88
2020-03-24 08:00:00 4 3 Sur 7 Norte 0 918.7 1.5 92
2020-03-24 07:00:00 3.6 5 Noroeste 8 Oeste 0 917.9 0 90
2020-03-24 06:00:00 6 5 Sur 9 Sur 0 918 0.2 89
2020-03-24 05:00:00 7.7 0 Calma 4 Sudeste 0 917.2 -0.7 83
2020-03-24 04:00:00 7.4 2 Oeste 9 Sudeste 0 917.9 0 85
2020-03-24 03:00:00 8 5 Sudeste 11 Sudeste 0 917.8 -0.2 82
2020-03-24 02:00:00 8.1 10 Sudeste 16 Sudeste 0 917.9 0.1 81
2020-03-24 01:00:00 6.5 0 Calma 3 Sur 0 917.9 0.2 90
2020-03-24 00:00:00 8.5 3 Este 5 Este 0 918 0.6 86
2020-03-23 23:00:00 8.5 3 Oeste 5 Noroeste 0 917.8 0.8 90
2020-03-23 22:00:00 8.4 2 Sudoeste 5 Sudoeste 0 917.7 1.1 90
2020-03-23 21:00:00 8.5 4 Sudeste 6 Este 0 917.4 1.5 89
2020-03-23 20:00:00 8.6 3 Sudeste 14 Nordeste 0 917 1.3 88
2020-03-23 19:00:00 9.4 6 Nordeste 17 Nordeste 0 916.6 1 78
2020-03-23 18:00:00 10.5 8 Nordeste 19 Nordeste 0 915.9 -0.1 72
2020-03-23 17:00:00 11.5 8 Nordeste 20 Nordeste 0 915.7 -0.8 64
2020-03-23 16:00:00 12.1 9 Nordeste 23 Este 0 915.6 -1.7 55
2020-03-23 15:00:00 11.9 15 Este 28 Este 0 916 -1.3 54
2020-03-23 14:00:00 12 13 Este 19 Nordeste 0 916.5 -1.3 55
2020-03-23 13:00:00 11.7 8 Nordeste 18 Este 0 917.3 -0.4 61
2020-03-23 12:00:00 10.5 0 Calma 14 Este 0 917.3 -0.1 65
2020-03-23 11:00:00 9.3 4 Este 10 Este 0 917.8 0.7 70
2020-03-23 10:00:00 7.4 0 Calma 14 Noroeste 0 917.7 1.2 76
2020-03-23 09:00:00 5.6 15 Noroeste 19 Noroeste 0 917.4 1.2 84
2020-03-23 08:00:00 2.6 2 Oeste 7 Sur 0 917.1 1 90
2020-03-23 07:00:00 2.4 4 Sudeste 7 Sur 0 916.5 0.6 87
2020-03-23 06:00:00 3 7 Noroeste 13 Oeste 0 916.2 0.4 86
2020-03-23 05:00:00 2.3 2 Oeste 9 Noroeste 0 916.1 -0.1 89
2020-03-23 04:00:00 2.1 0 Calma 12 Noroeste 0 915.9 -0.2 85
2020-03-23 03:00:00 2.1 5 Noroeste 10 Noroeste 0 915.8 -0.2 86
2020-03-23 02:00:00 2.6 3 Noroeste 9 Oeste 0 916.2 0.2 88
2020-03-23 01:00:00 2.9 6 Oeste 9 Oeste 0 916.1 0.6 91
2020-03-23 00:00:00 3.5 3 Oeste 6 Oeste 0 916 1 91
2020-03-22 23:00:00 5.5 3 Sur 9 Sur 0 916 1.7 93
2020-03-22 22:00:00 4.9 5 Sudoeste 9 Nordeste 0 915.5 1.7 92
2020-03-22 21:00:00 6.7 0 Calma 21 Nordeste 0 915 1.8 91
2020-03-22 20:00:00 7.7 11 Nordeste 25 Nordeste 0 914.3 1.9 91
2020-03-22 19:00:00 8.9 18 Nordeste 27 Nordeste 0 913.8 1.2 78
2020-03-22 18:00:00 10.9 8 Nordeste 32 Nordeste 0 913.2 0.5 64
2020-03-22 17:00:00 11.9 14 Nordeste 30 Nordeste 0 912.4 -0.2 62
2020-03-22 16:00:00 12 15 Nordeste 27 Nordeste 0 912.6 -0.6 67
2020-03-22 15:00:00 12.3 17 Nordeste 28 Nordeste 0 912.7 -0.5 73
2020-03-22 14:00:00 13.2 11 Nordeste 19 Nordeste 0 912.6 -0.6 67
2020-03-22 13:00:00 11.3 8 Este 15 Este 0 913.2 0.2 75
2020-03-22 12:00:00 9.4 5 Este 14 Este 0 913.2 0.6 86
2020-03-22 11:00:00 7.8 4 Sudeste 9 Sudeste 0 913.2 0.9 94
2020-03-22 10:00:00 6.9 3 Este 11 Este 0 913 1.1 94
2020-03-22 09:00:00 6.1 5 Este 10 Sudeste 0 912.6 1 94
2020-03-22 08:00:00 3.6 2 Este 6 Sudeste 0 912.3 1 93
2020-03-22 07:00:00 3.2 2 Oeste 5 Noroeste 0 911.9 0.7 93
2020-03-22 06:00:00 3.6 2 Sudoeste 6 Oeste 0 911.6 0.2 93
2020-03-22 05:00:00 2.7 0 Calma 6 Noroeste 0 911.3 -0.2 92
2020-03-22 04:00:00 3.6 5 Noroeste 8 Noroeste 0 911.2 -0.6 90
2020-03-22 03:00:00 5.6 2 Sudoeste 8 Noroeste 0 911.4 -0.1 90
2020-03-22 02:00:00 5.6 4 Oeste 6 Noroeste 0 911.5 0.2 93
2020-03-22 01:00:00 4 4 Oeste 5 Oeste 0 911.8 0.8 91
2020-03-22 00:00:00 5.9 0 Calma 6 Oeste 0 911.5 0.8 85
2020-03-21 23:00:00 6.4 2 Noroeste 9 Noroeste 0 911.3 1.2 84
2020-03-21 22:00:00 9.2 0 Calma 9 Nordeste 0 911 1.5 78
2020-03-21 21:00:00 9.8 7 Este 14 Nordeste 0 910.7 1.6 74
2020-03-21 20:00:00 11.5 2 Este 14 Este 0 910.1 0.9 63
2020-03-21 19:00:00 13 7 Este 15 Este 0 909.5 0 54
2020-03-21 18:00:00 14.4 10 Sudeste 19 Sudeste 0 909.1 -0.9 48
2020-03-21 17:00:00 15.1 8 Sur 22 Sudeste 0 909.2 -1.1 43
2020-03-21 16:00:00 14.9 12 Sudeste 23 Sudeste 0 909.5 -1.2 46
2020-03-21 15:00:00 14.3 15 Sudeste 24 Sur 0 910 -1.2 51
2020-03-21 14:00:00 13.6 12 Sudeste 21 Este 0 910.3 -1.2 53
2020-03-21 13:00:00 12.3 16 Este 27 Este 0 910.7 -1.1 67
2020-03-21 12:00:00 11.5 17 Este 25 Nordeste 0 911.2 -0.6 68
2020-03-21 11:00:00 11.6 13 Sudeste 25 Sur 0 911.5 -0.7 65
2020-03-21 10:00:00 9.2 19 Sur 26 Sudeste 0 911.8 -0.2 78
2020-03-21 09:00:00 7.4 14 Sudeste 21 Sur 0 911.8 -0.6 87
2020-03-21 08:00:00 5.9 4 Sur 12 Oeste 0 912.2 -0.3 93
2020-03-21 07:00:00 5.6 2 Norte 18 Sudeste 0 912 -0.7 94
2020-03-21 06:00:00 5.6 14 Sur 24 Sur 0 912.4 -0.7 93
2020-03-21 05:00:00 5.4 9 Sudeste 19 Sudeste 0 912.5 -0.9 93
2020-03-21 04:00:00 6 9 Sudeste 16 Sudeste 0 912.7 -1 92
2020-03-21 03:00:00 5.1 0 Calma 7 Nordeste 0 913.1 -0.9 91
2020-03-21 02:00:00 6.5 4 Nordeste 13 Este 0 913.4 -1 87
2020-03-21 01:00:00 6.8 5 Nordeste 9 Nordeste 0 913.7 -0.2 87
2020-03-21 00:00:00 7.4 4 Nordeste 7 Este 0 914 0.3 83
2020-03-20 23:00:00 9.1 4 Este 12 Sudeste 0 914.4 1.1 78
2020-03-20 22:00:00 9.2 10 Sudeste 22 Sudeste 0 913.9 0.7 78
2020-03-20 21:00:00 9.3 16 Sudeste 25 Sudeste 0 913.7 0.6 76
2020-03-20 20:00:00 10.8 12 Sur 19 Sur 0 913.3 -0.1 69
2020-03-20 19:00:00 12.4 5 Sur 17 Sur 0 913.2 -0.4 58
2020-03-20 18:00:00 13.2 6 Sur 17 Sudoeste 0 913.1 -0.7 56
2020-03-20 17:00:00 13.1 10 Sur 28 Sudoeste 0 913.4 -0.8 57
2020-03-20 16:00:00 13.8 14 Sudoeste 30 Sudoeste 0 913.6 -1.1 56
2020-03-20 15:00:00 12.6 9 Sur 26 Sur 0 913.8 -1.5 56
2020-03-20 14:00:00 11.6 18 Sur 31 Sur 0 914.2 -1.4 62
2020-03-20 13:00:00 10.8 17 Sur 27 Sur 0 914.7 -1 65
2020-03-20 12:00:00 10.5 11 Sur 22 Sudeste 0 915.3 0 71
2020-03-20 11:00:00 8.8 13 Sudeste 18 Sudeste 0 915.6 0.5 78
2020-03-20 10:00:00 7.5 13 Sudeste 23 Sur 0 915.7 0.9 84
2020-03-20 09:00:00 6.6 16 Sudeste 24 Sudeste 0 915.3 0.4 86
2020-03-20 08:00:00 5.7 15 Sudeste 25 Sudeste 0 915.1 0.1 89
2020-03-20 07:00:00 5.9 11 Sudeste 16 Sudeste 0 914.8 -0.5 86
2020-03-20 06:00:00 6.5 7 Sudeste 22 Sudeste 0 914.9 -0.7 86
2020-03-20 05:00:00 6.4 12 Sudeste 17 Sudeste 0 915 -0.7 86
2020-03-20 04:00:00 6.5 9 Sudeste 19 Sudeste 0 915.3 -0.8 86
2020-03-20 03:00:00 7.3 12 Sudeste 17 Sudeste 0 915.6 -0.6 85
2020-03-20 02:00:00 7.4 10 Sudeste 15 Sudeste 0 915.7 -0.9 87
2020-03-20 01:00:00 6.8 2 Nordeste 7 Sur 0 916.1 -0.8 87
2020-03-20 00:00:00 8.5 3 Este 8 Este 0 916.2 -0.6 82
2020-03-19 23:00:00 9.5 4 Sudeste 14 Sudeste 0 916.6 0 78
2020-03-19 22:00:00 9.8 8 Sudeste 13 Sudeste 0 916.9 0.6 77
2020-03-19 21:00:00 10.6 6 Sur 13 Sur 0 916.8 0.6 74
2020-03-19 20:00:00 10.9 2 Noroeste 10 Nordeste 0 916.6 0.2 67
2020-03-19 19:00:00 13.5 6 Sudeste 18 Sudeste 0 916.3 -0.7 52
2020-03-19 18:00:00 15.5 6 Sur 18 Sur 0 916.2 -1 35
2020-03-19 17:00:00 16.8 10 Sur 20 Sur 0 916.4 -1.6 28
2020-03-19 16:00:00 16.7 15 Sur 28 Sur 0 917 -1.9 27
2020-03-19 15:00:00 17.3 17 Sur 27 Sur 0 917.2 -2.3 28
2020-03-19 14:00:00 18 13 Sur 29 Sur 0 918 -2.2 26
2020-03-19 13:00:00 16.7 16 Sur 28 Sur 0 918.9 -1.6 25
2020-03-19 12:00:00 16.2 14 Sur 24 Sur 0 919.5 -1.2 31
2020-03-19 11:00:00 13.1 8 Nordeste 18 Este 0 920.2 -0.5 69
2020-03-19 10:00:00 9.2 11 Este 17 Nordeste 0 920.5 -0.1 94
2020-03-19 09:00:00 6.7 5 Nordeste 13 Nordeste 0 920.7 0 94
2020-03-19 08:00:00 5.5 5 Nordeste 12 Nordeste 0 920.7 -0.1 94
2020-03-19 07:00:00 3.6 4 Noroeste 8 Norte 0 920.6 -0.4 94
2020-03-19 06:00:00 3.2 0 Calma 4 Noroeste 0 920.7 -0.9 94
2020-03-19 05:00:00 3.4 3 Noroeste 6 Noroeste 0 920.8 -1.3 93
2020-03-19 04:00:00 3.8 3 Noroeste 5 Noroeste 0 921 -1.4 93
2020-03-19 03:00:00 4.7 0 Calma 6 Noroeste 0 921.6 -1.3 93
2020-03-19 02:00:00 5.1 2 Noroeste 6 Noroeste 0 922.1 -0.9 93
2020-03-19 01:00:00 5.6 0 Calma 4 Noroeste 0 922.4 -0.7 92
2020-03-19 00:00:00 6.2 2 Noroeste 5 Noroeste 0 922.9 -0.2 91
2020-03-18 23:00:00 7.4 0 Calma 4 Noroeste 0 923 0 89
2020-03-18 22:00:00 8.6 3 Sur 8 Sur 0 923.1 0.3 87
2020-03-18 21:00:00 9.5 0 Calma 6 Sudoeste 0 923.1 0.9 83
2020-03-18 20:00:00 10.9 0 Calma 16 Este 0 923 0.7 76
2020-03-18 19:00:00 13 9 Este 14 Nordeste 0 922.8 0.1 69
2020-03-18 18:00:00 16.9 5 Sudeste 21 Sur 0 922.2 -1 42
2020-03-18 17:00:00 17.6 13 Sur 26 Sur 0 922.3 -1.8 40
2020-03-18 16:00:00 17.6 19 Sur 28 Sudeste 0 922.7 -1.9 41
2020-03-18 15:00:00 17.1 15 Sur 30 Sur 0 923.2 -2.3 42
2020-03-18 14:00:00 16.6 12 Sur 24 Sur 0 924.1 -1.8 43
2020-03-18 13:00:00 15.5 8 Sur 18 Sudeste 0 924.6 -1.6 47
2020-03-18 12:00:00 11.1 6 Nordeste 11 Nordeste 0 925.5 -0.7 84
2020-03-18 11:00:00 7.6 2 Nordeste 6 Nordeste 0 925.9 -0.4 95
2020-03-18 10:00:00 5.3 0 Calma 5 Oeste 0 926.2 -0.2 95
2020-03-18 09:00:00 3.9 4 Oeste 8 Noroeste 0 926.2 0.1 95
2020-03-18 08:00:00 3.6 3 Sudoeste 6 Sudoeste 0 926.3 0.4 95
2020-03-18 07:00:00 2.2 6 Noroeste 8 Noroeste 0 926.4 0.5 95
2020-03-18 06:00:00 2.6 0 Calma 6 Oeste 0 926.1 -0.1 95
2020-03-18 05:00:00 1.5 3 Noroeste 6 Noroeste 0 925.9 -0.9 95
2020-03-18 04:00:00 3.6 0 Calma 7 Sur 0 925.9 -1 95
2020-03-18 03:00:00 4.2 4 Noroeste 13 Oeste 0 926.2 -1 95
2020-03-18 02:00:00 3.3 6 Noroeste 23 Sur 0 926.8 -1 93
2020-03-18 01:00:00 7 9 Sur 26 Sudeste 0 926.9 -0.7 93
2020-03-18 00:00:00 6.6 8 Sur 18 Sudeste 0 927.2 -0.2 94
2020-03-17 23:00:00 6 5 Este 21 Sudoeste 0 927.8 0.7 93
2020-03-17 22:00:00 6.8 3 Sudoeste 22 Sudeste 0 927.6 1.1 90
2020-03-17 21:00:00 8 8 Sudeste 15 Sudeste 0 927.4 0.9 90
2020-03-17 20:00:00 8.6 2 Oeste 4 Oeste 0 927.1 0.6 88
2020-03-17 19:00:00 8.6 0 Calma 4 Noroeste 0 926.5 0.3 86
2020-03-17 18:00:00 8.7 0 Calma 7 Sudeste 0 926.5 0 84
2020-03-17 17:00:00 8.5 5 Este 11 Este 0 926.5 -0.4 83
2020-03-17 16:00:00 8.9 3 Nordeste 9 Este 0 926.2 -0.9 83
2020-03-17 15:00:00 8.7 4 Este 10 Este 0 926.5 -0.1 83
2020-03-17 14:00:00 8.5 8 Este 12 Este 0 926.9 0.2 83
2020-03-17 13:00:00 8.6 11 Este 15 Este 0 927.1 0.5 84
2020-03-17 12:00:00 9.2 0 Calma 15 Este 0 926.6 0.4 78
2020-03-17 11:00:00 8.1 8 Nordeste 14 Este 0 926.7 0.5 85
2020-03-17 10:00:00 7.5 4 Este 17 Oeste 0 926.6 0.9 86
2020-03-17 09:00:00 5.9 6 Noroeste 16 Noroeste 0 926.2 1.4 89
2020-03-17 08:00:00 4.9 7 Norte 16 Noroeste 0 926.2 1.7 91
2020-03-17 07:00:00 4.7 6 Noroeste 15 Norte 0 925.7 1.5 89
2020-03-17 06:00:00 4.4 6 Noroeste 20 Oeste 0 924.8 0.7 89
2020-03-17 05:00:00 4.4 13 Noroeste 22 Noroeste 0 924.5 0.4 88
2020-03-17 04:00:00 4.4 11 Norte 36 Noroeste 0 924.2 0.2 86
2020-03-17 03:00:00 4.2 18 Noroeste 39 Noroeste 0 924.1 0.5 87
2020-03-17 02:00:00 4.1 21 Noroeste 38 Noroeste 0 924.1 0.3 86
2020-03-17 01:00:00 4 18 Noroeste 37 Noroeste 0 924 1 88
2020-03-17 00:00:00 4.1 12 Noroeste 32 Oeste 0 923.6 1.3 87
2020-03-16 23:00:00 4 10 Noroeste 35 Norte 0 923.8 2.6 88
2020-03-16 22:00:00 4 15 Norte 33 Norte 0 923 2.5 88
2020-03-16 21:00:00 3.7 19 Norte 37 Norte 0 922.3 2.6 89
2020-03-16 20:00:00 3.5 9 Norte 33 Norte 0 921.2 1.9 88
2020-03-16 19:00:00 3.7 15 Norte 44 Norte 0.1 920.5 1.7 87
2020-03-16 18:00:00 3.9 21 Norte 44 Norte 0 919.7 0.9 88
2020-03-16 17:00:00 4.2 15 Norte 45 Noroeste 0 919.3 1.1 88
2020-03-16 16:00:00 4.3 16 Norte 40 Norte 0.1 918.8 0.7 87
2020-03-16 15:00:00 3.9 19 Norte 42 Noroeste 0.2 918.8 1.5 86
2020-03-16 14:00:00 4.1 21 Norte 48 Norte 0.3 918.2 2.1 86
2020-03-16 13:00:00 3.5 23 Norte 42 Norte 0.3 918.1 2 87
2020-03-16 12:00:00 3.8 25 Norte 58 Norte 0.6 917.3 2 87
2020-03-16 11:00:00 2.8 36 Norte 57 Norte 0.3 916.1 1.4 88
2020-03-16 10:00:00 2.7 20 Norte 42 Norte 0.4 916.1 1.7 87
2020-03-16 09:00:00 1.9 31 Noroeste 48 Noroeste 0.2 915.3 1.1 89
2020-03-16 08:00:00 2 18 Noroeste 51 Noroeste 0.1 914.7 1.6 88
2020-03-16 07:00:00 1.7 14 Noroeste 37 Noroeste 0.2 914.4 1.4 89
2020-03-16 06:00:00 1.4 14 Noroeste 32 Noroeste 0.1 914.2 1.2 88
2020-03-16 05:00:00 1.4 13 Noroeste 37 Noroeste 0 913.1 0 87
2020-03-16 04:00:00 1.6 6 Noroeste 28 Noroeste 0 913 -0.2 83
2020-03-16 03:00:00 1.7 7 Oeste 29 Noroeste 0 913 0 85
2020-03-16 02:00:00 1.9 7 Oeste 23 Noroeste 0 913.1 0.1 83
2020-03-16 01:00:00 2.7 3 Sudeste 22 Oeste 0 913.2 0.6 78
2020-03-16 00:00:00 2.7 6 Oeste 28 Noroeste 0 913 0.7 78
2020-03-15 23:00:00 2.8 6 Noroeste 42 Noroeste 0 913 0.9 83
2020-03-15 22:00:00 2.8 24 Noroeste 39 Noroeste 0 912.6 1.3 83
2020-03-15 21:00:00 3.6 8 Norte 42 Noroeste 0 912.3 1.2 80
2020-03-15 20:00:00 3.9 21 Noroeste 34 Noroeste 0 912.1 1.4 84
2020-03-15 19:00:00 5.1 12 Noroeste 36 Norte 0 911.3 0.5 83
2020-03-15 18:00:00 7.7 12 Norte 27 Norte 0 911.1 1 74
2020-03-15 17:00:00 8.6 8 Norte 27 Nordeste 0 910.7 -0.1 70
2020-03-15 16:00:00 9.7 18 Nordeste 35 Este 0 910.8 -0.8 78
2020-03-15 15:00:00 14.8 11 Sudeste 32 Sur 0 910.1 -2.2 32
2020-03-15 14:00:00 16.4 11 Sudoeste 40 Sudoeste 0 910.8 -2.3 31
2020-03-15 13:00:00 15.3 13 Sur 39 Sudoeste 0 911.6 -1.6 35
2020-03-15 12:00:00 14.5 19 Sudoeste 37 Sudoeste 0 912.3 -1 39
2020-03-15 11:00:00 12.8 10 Este 37 Sudeste 0 913.1 -0.5 41
2020-03-15 10:00:00 10.2 24 Sudeste 36 Sur 0 913.2 -0.4 44
2020-03-15 09:00:00 8.4 21 Sudeste 36 Sudeste 0 913.3 -0.5 51
2020-03-15 08:00:00 5.3 6 Sur 27 Sudeste 0 913.6 -0.7 61
2020-03-15 07:00:00 5.4 8 Sudeste 21 Sur 0 913.6 -1.5 62
2020-03-15 06:00:00 1.6 2 Noroeste 14 Sur 0 913.8 -2.3 82
2020-03-15 05:00:00 2.9 3 Oeste 26 Sudeste 0 914.3 -2.6 72
2020-03-15 04:00:00 3 5 Oeste 19 Norte 0 915.1 -2.7 78
2020-03-15 03:00:00 -0.3 4 Noroeste 10 Noroeste 0 916.1 -2.2 93
2020-03-15 02:00:00 0.1 4 Oeste 12 Oeste 0 916.9 -1.9 93
2020-03-15 01:00:00 0 3 Noroeste 5 Noroeste 0 917.8 -1.2 92
2020-03-15 00:00:00 1.3 0 Calma 9 Oeste 0 918.3 -0.7 91
2020-03-14 23:00:00 2 3 Oeste 6 Oeste 0 918.8 -0.2 91
2020-03-14 22:00:00 3.8 4 Sudoeste 6 Sudoeste 0 919 0 91
2020-03-14 21:00:00 4.4 2 Oeste 3 Oeste 0 919 -0.1 87
2020-03-14 20:00:00 7.2 0 Calma 8 Este 0 919 -0.3 78
2020-03-14 19:00:00 9.9 6 Este 13 Este 0 919 -0.7 68
2020-03-14 18:00:00 11.8 11 Este 14 Nordeste 0 919.1 -1.1 57
2020-03-14 17:00:00 13.2 9 Este 16 Este 0 919.3 -1.7 48
2020-03-14 16:00:00 12.9 10 Este 16 Este 0 919.7 -2 48
2020-03-14 15:00:00 12.4 7 Este 17 Este 0 920.2 -1.7 49
2020-03-14 14:00:00 11.7 5 Nordeste 14 Este 0 921 -1.2 53
2020-03-14 13:00:00 10.5 5 Nordeste 15 Este 0 921.7 -0.8 55
2020-03-14 12:00:00 9.5 5 Este 13 Nordeste 0 921.9 -0.2 62
2020-03-14 11:00:00 7.7 3 Nordeste 9 Nordeste 0 922.2 0.3 70
2020-03-14 10:00:00 4.6 2 Sur 5 Sudoeste 0 922.5 1 78
2020-03-14 09:00:00 0 2 Sudoeste 6 Oeste 0 922.1 0.6 90
2020-03-14 08:00:00 -3.5 3 Noroeste 7 Noroeste 0 921.9 0.7 92
2020-03-14 07:00:00 -3 3 Sudoeste 7 Sudoeste 0 921.5 0.1 92
2020-03-14 06:00:00 -3.2 0 Calma 7 Oeste 0 921.5 -0.2 93
2020-03-14 05:00:00 -2.5 3 Noroeste 7 Sur 0 921.2 -0.8 93
2020-03-14 04:00:00 -1.8 2 Sudoeste 6 Sudoeste 0 921.4 -0.7 93
2020-03-14 03:00:00 -2 3 Noroeste 9 Oeste 0 921.7 -0.2 93
2020-03-14 02:00:00 -2.4 2 Este 5 Sur 0 922 -0.1 93
2020-03-14 01:00:00 -1.3 3 Sudoeste 9 Oeste 0 922.1 0.4 93
2020-03-14 00:00:00 -1.7 2 Noroeste 7 Sur 0 921.9 0.3 93
2020-03-13 23:00:00 0 2 Oeste 8 Oeste 0 922.1 1.5 93
2020-03-13 22:00:00 0.7 2 Sudoeste 9 Este 0 921.7 1.1 92
2020-03-13 21:00:00 2.2 0 Calma -- -- -- 921.6 0.9 91
2020-03-13 20:00:00 3.6 3 Este 15 Este 0 920.6 -0.4 86
2020-03-13 19:00:00 5.5 9 Nordeste 18 Nordeste 0 920.6 -0.6 82
2020-03-13 18:00:00 7.7 8 Nordeste 19 Norte 0 920.7 -0.7 73
2020-03-13 17:00:00 7 15 Nordeste 22 Nordeste 0 921 -0.4 76
2020-03-13 16:00:00 7.8 8 Nordeste 22 Norte 0 921.2 -0.9 70
2020-03-13 15:00:00 7.4 12 Nordeste 24 Nordeste 0 921.4 -1 75
2020-03-13 14:00:00 8.1 13 Nordeste 23 Nordeste 0 921.4 -1 68
2020-03-13 13:00:00 8.2 11 Nordeste 24 Nordeste 0 922.1 -0.4 67
2020-03-13 12:00:00 7.8 12 Nordeste 22 Este 0 922.4 0.2 72
2020-03-13 11:00:00 7.3 12 Este 19 Este 0 922.4 0.1 82
2020-03-13 10:00:00 6.6 6 Este 10 Este 0 922.5 0.2 86
2020-03-13 09:00:00 5.7 0 Calma 8 Nordeste 0 922.2 -0.1 89
2020-03-13 08:00:00 4.9 4 Nordeste 19 Norte 0 922.3 0 91
2020-03-13 07:00:00 5 7 Norte 18 Norte 0 922.3 0.2 92
2020-03-13 06:00:00 5.2 9 Norte 17 Norte 0 922.3 -0.4 91
2020-03-13 05:00:00 5.3 8 Norte 19 Noroeste 0 922.3 -0.5 89
2020-03-13 04:00:00 5.7 11 Norte 23 Norte 0 922.1 -1 88
2020-03-13 03:00:00 5.9 12 Norte 23 Norte 0 922.7 -0.5 86
2020-03-13 02:00:00 6 6 Nordeste 16 Nordeste 0 922.8 -0.2 88
2020-03-13 01:00:00 6.2 7 Nordeste 17 Noroeste 0 923.1 0.5 90
2020-03-13 00:00:00 6.7 11 Norte 17 Norte 0 923.2 0.8 85
2020-03-12 23:00:00 6.4 6 Norte 22 Noroeste 0 923 0.9 86
2020-03-12 22:00:00 7.3 13 Noroeste 27 Noroeste 0 922.6 0.7 80
2020-03-12 21:00:00 7.4 2 Noroeste 13 Norte 0 922.4 1 78
2020-03-12 20:00:00 7.5 3 Norte 28 Noroeste 0 922.1 1.1 78
2020-03-12 19:00:00 7.9 9 Norte 17 Noroeste 0 921.9 0.8 77
2020-03-12 18:00:00 8.3 7 Norte 26 Nordeste 0 921.4 0.4 78
2020-03-12 17:00:00 8.8 11 Nordeste 23 Nordeste 0 921 -0.6 91
2020-03-12 16:00:00 8.9 10 Nordeste 23 Este 0 921.1 -0.8 91
2020-03-12 15:00:00 9.3 14 Nordeste 22 Nordeste 0 921 -1.5 91
2020-03-12 14:00:00 9.2 10 Nordeste 20 Nordeste 0 921.6 -0.7 91
2020-03-12 13:00:00 9.5 13 Nordeste 19 Este 0 921.9 -0.3 86
2020-03-12 12:00:00 9.5 8 Nordeste 15 Nordeste 0 922.5 0.6 86
2020-03-12 11:00:00 9.4 7 Nordeste 14 Nordeste 0 922.3 0.6 86
2020-03-12 10:00:00 9.2 2 Nordeste 8 Este 0 922.2 0.8 93
2020-03-12 09:00:00 8.1 3 Noroeste 5 Noroeste 0 921.9 0.7 94
2020-03-12 08:00:00 7.2 0 Calma 4 Oeste 0 921.7 0.6 94
2020-03-12 07:00:00 7.3 0 Calma 6 Sudeste 0 921.4 0.3 94
2020-03-12 06:00:00 6.9 0 Calma 5 Noroeste 0 921.2 0 94
2020-03-12 05:00:00 7 0 Calma 6 Norte 0.1 921.1 -0.4 94
2020-03-12 04:00:00 7.3 3 Noroeste 6 Noroeste 0 921.1 -0.6 94
2020-03-12 03:00:00 6.9 3 Noroeste 8 Noroeste 0 921.2 -0.6 94
2020-03-12 02:00:00 7.2 0 Calma 8 Noroeste 0 921.5 -0.2 94
2020-03-12 01:00:00 6.8 0 Calma 6 Noroeste 0 921.7 0 94
2020-03-12 00:00:00 7.6 0 Calma 6 Sudeste 0 921.8 -0.2 92
2020-03-11 23:00:00 8.1 3 Oeste 6 Noroeste 0 921.7 -0.1 91
2020-03-11 22:00:00 8 0 Calma 5 Oeste 0 921.7 0.5 90
2020-03-11 21:00:00 8.6 0 Calma 9 Este 0 922 1.4 86
2020-03-11 20:00:00 11.7 8 Este 19 Este 0 921.8 1.3 78
2020-03-11 19:00:00 14.1 9 Este 24 Sudeste 0 921.2 0.6 64
2020-03-11 18:00:00 19.1 14 Sur 33 Sur 0 920.6 -0.1 34
2020-03-11 17:00:00 20.5 17 Sur 30 Sur 0 920.5 -1.1 31
2020-03-11 16:00:00 20.6 14 Sudoeste 41 Sur 0 920.6 -1.7 33
2020-03-11 15:00:00 20.1 22 Sur 39 Sur 0 920.7 -2.4 35
2020-03-11 14:00:00 18.9 16 Sur 31 Sur 0 921.6 -2.2 35
2020-03-11 13:00:00 18.1 5 Sudeste 23 Sudeste 0 922.3 -2 37
2020-03-11 12:00:00 15.2 12 Sudeste 21 Sudeste 0 923.1 -1.3 47
2020-03-11 11:00:00 11.7 3 Nordeste 8 Nordeste 0 923.8 -0.4 65
2020-03-11 10:00:00 9.1 0 Calma 3 Sudoeste 0 924.3 0 78
2020-03-11 09:00:00 3.2 2 Noroeste 7 Oeste 0 924.4 0.1 93
2020-03-11 08:00:00 0 6 Oeste 9 Oeste 0 924.2 -0.1 94
2020-03-11 07:00:00 -0.1 5 Oeste 9 Oeste 0 924.3 -0.2 94
2020-03-11 06:00:00 -0.1 3 Noroeste 8 Sur 0 924.3 -0.4 94
2020-03-11 05:00:00 0.7 0 Calma 7 Sudoeste 0 924.3 -1 94
2020-03-11 04:00:00 0.9 4 Oeste 7 Oeste 0 924.5 -0.9 94
2020-03-11 03:00:00 2.1 4 Noroeste 12 Sudoeste 0 924.7 -0.7 94
2020-03-11 02:00:00 2.3 4 Sudoeste 9 Sudoeste 0 925.3 -0.4 94
2020-03-11 01:00:00 2.4 3 Sudoeste 5 Noroeste 0 925.4 0.3 94
2020-03-11 00:00:00 3.8 3 Oeste 6 Noroeste 0 925.4 0.6 94
2020-03-10 23:00:00 3.4 3 Oeste 5 Sudoeste 0 925.7 0.9 94
2020-03-10 22:00:00 5.3 0 Calma 5 Oeste 0 925.1 0.8 93
2020-03-10 21:00:00 6.2 0 Calma 7 Este 0 924.8 0.6 91
2020-03-10 20:00:00 9 2 Sudeste 7 Este 0 924.8 1.2 85
2020-03-10 19:00:00 11.3 4 Este 10 Este 0 924.3 0.8 75
2020-03-10 18:00:00 13.7 3 Nordeste 20 Este 0 924.2 0.6 68
2020-03-10 17:00:00 14.7 13 Este 18 Este 0 923.6 -0.8 63
2020-03-10 16:00:00 16.7 14 Este 20 Sudeste 0 923.5 -1.5 51
2020-03-10 15:00:00 17.6 11 Sur 20 Sudeste 0 923.6 -1.7 41
2020-03-10 14:00:00 16.7 3 Este 11 Sudeste 0 924.4 -0.9 43
2020-03-10 13:00:00 14.6 6 Nordeste 12 Nordeste 0 925 -0.5 54
2020-03-10 12:00:00 13.1 0 Calma 6 Sudeste 0 925.3 -0.1 52
2020-03-10 11:00:00 10.1 2 Sur 6 Sudoeste 0 925.3 0 58
2020-03-10 10:00:00 7 2 Noroeste 5 Noroeste 0 925.5 0.8 74
2020-03-10 09:00:00 2.6 3 Oeste 6 Oeste 0 925.4 0.8 92
2020-03-10 08:00:00 0.7 4 Noroeste 8 Oeste 0 925.3 0.4 93
2020-03-10 07:00:00 0.4 4 Oeste 8 Oeste 0 924.7 -0.3 93
2020-03-10 06:00:00 0.6 2 Oeste 9 Oeste 0 924.6 -0.6 94
2020-03-10 05:00:00 0.5 5 Noroeste 10 Oeste 0 924.9 -1 94
2020-03-10 04:00:00 0.6 4 Oeste 9 Oeste 0 925 -0.7 94
2020-03-10 03:00:00 1.2 3 Oeste 9 Oeste 0 925.2 -0.6 94
2020-03-10 02:00:00 1.4 6 Oeste 9 Oeste 0 925.9 -0.6 94
2020-03-10 01:00:00 2.9 2 Sur 7 Oeste 0 925.7 -0.8 94
2020-03-10 00:00:00 2.8 0 Calma 5 Sur 0 925.8 -0.5 93
2020-03-09 23:00:00 4.4 0 Calma 6 Noroeste 0 926.5 0.4 94
2020-03-09 22:00:00 3.5 4 Noroeste 9 Este 0 926.5 0.7 93
2020-03-09 21:00:00 4.4 4 Este 8 Este 0 926.3 1.1 91
2020-03-09 20:00:00 5 2 Este 21 Este 0 926.1 0.7 88
2020-03-09 19:00:00 6.1 14 Este 21 Este 0 925.8 0.4 79
2020-03-09 18:00:00 8 11 Este 21 Este 0 925.2 -0.5 73
2020-03-09 17:00:00 9 12 Este 22 Este 0 925.4 -0.5 68
2020-03-09 16:00:00 9.5 6 Norte 20 Norte 0 925.4 -1.1 57
2020-03-09 15:00:00 9.3 9 Noroeste 26 Norte 0 925.7 -1.2 55
2020-03-09 14:00:00 9 15 Norte 33 Norte 0 925.9 -0.4 53
2020-03-09 13:00:00 8.7 24 Norte 33 Norte 0 926.5 0.1 57
2020-03-09 12:00:00 7.7 18 Norte 37 Norte 0 926.9 1.1 58
2020-03-09 11:00:00 7.8 15 Norte 27 Norte 0 926.3 1.1 61
2020-03-09 10:00:00 6.7 7 Norte 15 Noroeste 0 926.4 1.3 65
2020-03-09 09:00:00 4.4 2 Sudoeste 6 Sudoeste 0 925.8 1.1 78
2020-03-09 08:00:00 3.6 3 Sur 20 Norte 0 925.2 1 78
2020-03-09 07:00:00 4.4 16 Noroeste 27 Noroeste 0 925.1 0.9 77
2020-03-09 06:00:00 4.4 15 Noroeste 28 Noroeste 0 924.7 0.2 77
2020-03-09 05:00:00 4.4 13 Noroeste 27 Noroeste 0 924.2 0.1 78
2020-03-09 04:00:00 4.6 17 Noroeste 32 Noroeste 0 924.2 0.2 78
2020-03-09 03:00:00 4.9 21 Noroeste 32 Noroeste 0 924.5 0.4 78
2020-03-09 02:00:00 5.5 4 Sudeste 26 Noroeste 0 924.1 0.3 86
2020-03-09 01:00:00 5.8 21 Noroeste 30 Noroeste 0 924 0.5 78
2020-03-09 00:00:00 6.1 21 Noroeste 33 Noroeste 0 924.1 0.9 78
2020-03-08 23:00:00 5.8 5 Noroeste 17 Noroeste 0 923.8 0.8 82
2020-03-08 22:00:00 6.1 3 Sudeste 10 Oeste 0 923.5 1 88
2020-03-08 21:00:00 7 6 Noroeste 21 Noroeste 0 923.2 1.7 78
2020-03-08 20:00:00 7.6 4 Noroeste 15 Noroeste 0 923 2.2 90
2020-03-08 19:00:00 7.9 8 Norte 25 Nordeste 0 922.5 1.5 92
2020-03-08 18:00:00 8.8 13 Nordeste 22 Este 0 921.5 0.5 87
2020-03-08 17:00:00 11 14 Nordeste 24 Nordeste 0 920.8 -0.7 68
2020-03-08 16:00:00 13.4 5 Sur 17 Sudoeste 0 921 -1.4 48
2020-03-08 15:00:00 13.5 9 Sur 22 Sur 0 921 -1.7 51
2020-03-08 14:00:00 12.2 5 Norte 17 Sur 0 921.5 -1.7 61
2020-03-08 13:00:00 10.3 10 Sudeste 18 Sudeste 0 922.4 -1.2 64
2020-03-08 12:00:00 9.5 4 Sur 17 Sudeste 0 922.7 -0.4 62
2020-03-08 11:00:00 6.9 8 Sudeste 15 Sudeste 0 923.2 0.5 78
2020-03-08 10:00:00 4.1 3 Noroeste 12 Sur 0 923.6 1.4 87
2020-03-08 09:00:00 1.8 2 Este 15 Sudoeste 0 923.1 0.9 93
2020-03-08 08:00:00 0.2 4 Noroeste 11 Sur 0 922.7 1.1 93
2020-03-08 07:00:00 -1 3 Oeste 5 Noroeste 0 922.2 -0.1 93
2020-03-08 06:00:00 -1.1 2 Noroeste 8 Sudoeste 0 922.2 -0.6 93
2020-03-08 05:00:00 -1 4 Sudoeste 10 Noroeste 0 921.6 -1.3 95
2020-03-08 04:00:00 -1.4 4 Sur 10 Oeste 0 922.3 -0.9 94
2020-03-08 03:00:00 -1.7 3 Sur 9 Noroeste 0 922.8 -1.2 95
2020-03-08 02:00:00 -1.6 5 Noroeste 9 Noroeste 0 922.9 -1.4 95
2020-03-08 01:00:00 -1 3 Oeste 9 Norte 0 923.2 -1.2 95
2020-03-08 00:00:00 -0.4 4 Sudoeste 8 Noroeste 0 924 -0.5 95